sensor_id;sensor_type;location;lat;lon;timestamp;P1;durP1;ratioP1;P2;durP2;ratioP2
11743;SDS011;5929;51.906;7.674;2023-12-20T00:00:21;18.85;;;5.25;;
11743;SDS011;5929;51.906;7.674;2023-12-20T00:02:48;13.93;;;5.68;;
11743;SDS011;5929;51.906;7.674;2023-12-20T00:05:15;23.02;;;6.95;;
11743;SDS011;5929;51.906;7.674;2023-12-20T00:07:41;16.35;;;6.70;;
11743;SDS011;5929;51.906;7.674;2023-12-20T00:10:09;20.02;;;8.10;;
11743;SDS011;5929;51.906;7.674;2023-12-20T00:12:38;21.88;;;7.75;;
11743;SDS011;5929;51.906;7.674;2023-12-20T00:15:07;20.23;;;7.60;;
11743;SDS011;5929;51.906;7.674;2023-12-20T00:17:34;18.73;;;7.95;;
11743;SDS011;5929;51.906;7.674;2023-12-20T00:20:01;18.40;;;8.55;;
11743;SDS011;5929;51.906;7.674;2023-12-20T00:22:28;20.33;;;8.82;;
11743;SDS011;5929;51.906;7.674;2023-12-20T00:24:55;20.65;;;9.73;;
11743;SDS011;5929;51.906;7.674;2023-12-20T00:27:21;20.67;;;9.00;;
11743;SDS011;5929;51.906;7.674;2023-12-20T00:29:49;22.27;;;9.48;;
11743;SDS011;5929;51.906;7.674;2023-12-20T00:32:17;25.75;;;10.25;;
11743;SDS011;5929;51.906;7.674;2023-12-20T00:34:44;26.40;;;10.50;;
11743;SDS011;5929;51.906;7.674;2023-12-20T00:37:12;24.80;;;8.90;;
11743;SDS011;5929;51.906;7.674;2023-12-20T00:39:38;22.63;;;10.30;;
11743;SDS011;5929;51.906;7.674;2023-12-20T00:42:05;28.90;;;10.95;;
11743;SDS011;5929;51.906;7.674;2023-12-20T00:44:32;26.73;;;11.18;;
11743;SDS011;5929;51.906;7.674;2023-12-20T00:46:59;24.35;;;10.60;;
11743;SDS011;5929;51.906;7.674;2023-12-20T00:49:27;32.45;;;10.80;;
11743;SDS011;5929;51.906;7.674;2023-12-20T00:51:54;24.95;;;10.60;;
11743;SDS011;5929;51.906;7.674;2023-12-20T00:54:21;29.20;;;11.07;;
11743;SDS011;5929;51.906;7.674;2023-12-20T00:56:48;27.15;;;10.10;;
11743;SDS011;5929;51.906;7.674;2023-12-20T00:59:15;26.05;;;9.50;;
11743;SDS011;5929;51.906;7.674;2023-12-20T01:01:43;21.83;;;9.80;;
11743;SDS011;5929;51.906;7.674;2023-12-20T01:04:10;26.95;;;8.95;;
11743;SDS011;5929;51.906;7.674;2023-12-20T01:06:38;29.77;;;9.18;;
11743;SDS011;5929;51.906;7.674;2023-12-20T01:09:05;25.95;;;8.32;;
11743;SDS011;5929;51.906;7.674;2023-12-20T01:11:31;19.70;;;9.10;;
11743;SDS011;5929;51.906;7.674;2023-12-20T01:14:00;20.08;;;8.55;;
11743;SDS011;5929;51.906;7.674;2023-12-20T01:16:27;17.42;;;8.00;;
11743;SDS011;5929;51.906;7.674;2023-12-20T01:18:57;21.83;;;8.93;;
11743;SDS011;5929;51.906;7.674;2023-12-20T01:21:24;23.05;;;8.35;;
11743;SDS011;5929;51.906;7.674;2023-12-20T01:23:52;20.80;;;8.77;;
11743;SDS011;5929;51.906;7.674;2023-12-20T01:26:19;24.83;;;8.25;;
11743;SDS011;5929;51.906;7.674;2023-12-20T01:28:46;21.63;;;8.77;;
11743;SDS011;5929;51.906;7.674;2023-12-20T01:31:13;20.15;;;8.52;;
11743;SDS011;5929;51.906;7.674;2023-12-20T01:33:39;22.75;;;8.38;;
11743;SDS011;5929;51.906;7.674;2023-12-20T01:36:06;21.50;;;9.45;;
11743;SDS011;5929;51.906;7.674;2023-12-20T01:38:33;18.63;;;8.68;;
11743;SDS011;5929;51.906;7.674;2023-12-20T01:41:04;23.15;;;9.18;;
11743;SDS011;5929;51.906;7.674;2023-12-20T01:43:30;23.75;;;9.18;;
11743;SDS011;5929;51.906;7.674;2023-12-20T01:45:57;28.52;;;9.57;;
11743;SDS011;5929;51.906;7.674;2023-12-20T01:48:25;27.33;;;9.90;;
11743;SDS011;5929;51.906;7.674;2023-12-20T01:50:52;17.67;;;9.68;;
11743;SDS011;5929;51.906;7.674;2023-12-20T01:53:20;26.40;;;9.43;;
11743;SDS011;5929;51.906;7.674;2023-12-20T01:55:50;16.75;;;8.55;;
11743;SDS011;5929;51.906;7.674;2023-12-20T01:58:20;19.13;;;9.07;;
11743;SDS011;5929;51.906;7.674;2023-12-20T02:00:48;18.15;;;9.10;;
11743;SDS011;5929;51.906;7.674;2023-12-20T02:03:15;19.52;;;9.48;;
11743;SDS011;5929;51.906;7.674;2023-12-20T02:05:42;27.55;;;10.23;;
11743;SDS011;5929;51.906;7.674;2023-12-20T02:08:11;23.58;;;10.27;;
11743;SDS011;5929;51.906;7.674;2023-12-20T02:10:38;20.38;;;9.40;;
11743;SDS011;5929;51.906;7.674;2023-12-20T02:13:07;23.25;;;9.60;;
11743;SDS011;5929;51.906;7.674;2023-12-20T02:15:35;25.77;;;9.02;;
11743;SDS011;5929;51.906;7.674;2023-12-20T02:18:03;22.42;;;9.32;;
11743;SDS011;5929;51.906;7.674;2023-12-20T02:20:30;19.15;;;8.60;;
11743;SDS011;5929;51.906;7.674;2023-12-20T02:22:58;24.40;;;9.25;;
11743;SDS011;5929;51.906;7.674;2023-12-20T02:25:25;28.98;;;8.20;;
11743;SDS011;5929;51.906;7.674;2023-12-20T02:27:52;22.25;;;8.40;;
11743;SDS011;5929;51.906;7.674;2023-12-20T02:30:19;28.08;;;8.40;;
11743;SDS011;5929;51.906;7.674;2023-12-20T02:32:46;17.35;;;7.07;;
11743;SDS011;5929;51.906;7.674;2023-12-20T02:35:13;20.45;;;7.72;;
11743;SDS011;5929;51.906;7.674;2023-12-20T02:37:40;21.63;;;8.23;;
11743;SDS011;5929;51.906;7.674;2023-12-20T02:40:08;20.27;;;7.10;;
11743;SDS011;5929;51.906;7.674;2023-12-20T02:42:35;15.23;;;6.68;;
11743;SDS011;5929;51.906;7.674;2023-12-20T02:45:02;15.80;;;6.65;;
11743;SDS011;5929;51.906;7.674;2023-12-20T02:47:32;22.98;;;6.72;;
11743;SDS011;5929;51.906;7.674;2023-12-20T02:49:58;15.80;;;5.30;;
11743;SDS011;5929;51.906;7.674;2023-12-20T02:52:25;15.48;;;5.68;;
11743;SDS011;5929;51.906;7.674;2023-12-20T02:54:53;15.50;;;6.30;;
11743;SDS011;5929;51.906;7.674;2023-12-20T02:57:21;16.25;;;5.70;;
11743;SDS011;5929;51.906;7.674;2023-12-20T02:59:48;15.90;;;5.97;;
11743;SDS011;5929;51.906;7.674;2023-12-20T03:02:15;19.20;;;6.38;;
11743;SDS011;5929;51.906;7.674;2023-12-20T03:04:42;16.40;;;6.18;;
11743;SDS011;5929;51.906;7.674;2023-12-20T03:07:08;12.57;;;6.57;;
11743;SDS011;5929;51.906;7.674;2023-12-20T03:09:37;13.20;;;5.10;;
11743;SDS011;5929;51.906;7.674;2023-12-20T03:12:04;12.40;;;4.90;;
11743;SDS011;5929;51.906;7.674;2023-12-20T03:14:32;14.32;;;5.45;;
11743;SDS011;5929;51.906;7.674;2023-12-20T03:16:59;15.82;;;5.18;;
11743;SDS011;5929;51.906;7.674;2023-12-20T03:19:26;20.77;;;5.22;;
11743;SDS011;5929;51.906;7.674;2023-12-20T03:21:52;17.83;;;5.72;;
11743;SDS011;5929;51.906;7.674;2023-12-20T03:24:19;19.70;;;4.78;;
11743;SDS011;5929;51.906;7.674;2023-12-20T03:26:46;16.92;;;4.63;;
11743;SDS011;5929;51.906;7.674;2023-12-20T03:29:13;14.45;;;5.25;;
11743;SDS011;5929;51.906;7.674;2023-12-20T03:31:41;18.65;;;4.38;;
11743;SDS011;5929;51.906;7.674;2023-12-20T03:34:08;13.70;;;4.57;;
11743;SDS011;5929;51.906;7.674;2023-12-20T03:36:34;19.92;;;5.72;;
11743;SDS011;5929;51.906;7.674;2023-12-20T03:39:01;19.38;;;5.78;;
11743;SDS011;5929;51.906;7.674;2023-12-20T03:41:28;16.05;;;4.90;;
11743;SDS011;5929;51.906;7.674;2023-12-20T03:43:55;11.65;;;4.45;;
11743;SDS011;5929;51.906;7.674;2023-12-20T03:46:22;15.02;;;4.95;;
11743;SDS011;5929;51.906;7.674;2023-12-20T03:48:50;16.92;;;4.88;;
11743;SDS011;5929;51.906;7.674;2023-12-20T03:51:16;18.58;;;4.65;;
11743;SDS011;5929;51.906;7.674;2023-12-20T03:53:43;16.15;;;4.25;;
11743;SDS011;5929;51.906;7.674;2023-12-20T03:56:10;21.73;;;4.40;;
11743;SDS011;5929;51.906;7.674;2023-12-20T03:58:37;17.45;;;4.85;;
11743;SDS011;5929;51.906;7.674;2023-12-20T04:01:08;13.48;;;4.57;;
11743;SDS011;5929;51.906;7.674;2023-12-20T04:03:36;16.25;;;4.18;;
11743;SDS011;5929;51.906;7.674;2023-12-20T04:06:06;18.77;;;4.22;;
11743;SDS011;5929;51.906;7.674;2023-12-20T04:08:33;16.33;;;4.95;;
11743;SDS011;5929;51.906;7.674;2023-12-20T04:11:02;12.70;;;4.03;;
11743;SDS011;5929;51.906;7.674;2023-12-20T04:13:29;14.30;;;4.07;;
11743;SDS011;5929;51.906;7.674;2023-12-20T04:15:55;19.45;;;5.20;;
11743;SDS011;5929;51.906;7.674;2023-12-20T04:18:22;18.17;;;5.25;;
11743;SDS011;5929;51.906;7.674;2023-12-20T04:20:49;15.85;;;5.10;;
11743;SDS011;5929;51.906;7.674;2023-12-20T04:23:18;13.27;;;4.93;;
11743;SDS011;5929;51.906;7.674;2023-12-20T04:25:44;25.33;;;5.53;;
11743;SDS011;5929;51.906;7.674;2023-12-20T04:28:12;22.98;;;6.07;;
11743;SDS011;5929;51.906;7.674;2023-12-20T04:30:38;19.02;;;4.88;;
11743;SDS011;5929;51.906;7.674;2023-12-20T04:33:05;17.50;;;5.90;;
11743;SDS011;5929;51.906;7.674;2023-12-20T04:35:32;21.02;;;6.13;;
11743;SDS011;5929;51.906;7.674;2023-12-20T04:38:01;20.08;;;5.93;;
11743;SDS011;5929;51.906;7.674;2023-12-20T04:40:29;20.27;;;6.07;;
11743;SDS011;5929;51.906;7.674;2023-12-20T04:42:56;16.85;;;5.78;;
11743;SDS011;5929;51.906;7.674;2023-12-20T04:45:23;17.90;;;6.50;;
11743;SDS011;5929;51.906;7.674;2023-12-20T04:47:50;20.55;;;6.50;;
11743;SDS011;5929;51.906;7.674;2023-12-20T04:50:17;18.02;;;5.93;;
11743;SDS011;5929;51.906;7.674;2023-12-20T04:52:44;28.60;;;6.68;;
11743;SDS011;5929;51.906;7.674;2023-12-20T04:55:12;20.38;;;6.55;;
11743;SDS011;5929;51.906;7.674;2023-12-20T04:57:40;11.98;;;5.70;;
11743;SDS011;5929;51.906;7.674;2023-12-20T05:00:08;20.23;;;6.03;;
11743;SDS011;5929;51.906;7.674;2023-12-20T05:02:35;18.83;;;8.07;;
11743;SDS011;5929;51.906;7.674;2023-12-20T05:05:02;18.08;;;6.03;;
11743;SDS011;5929;51.906;7.674;2023-12-20T05:07:29;17.92;;;6.55;;
11743;SDS011;5929;51.906;7.674;2023-12-20T05:09:56;22.75;;;5.95;;
11743;SDS011;5929;51.906;7.674;2023-12-20T05:12:23;15.98;;;6.63;;
11743;SDS011;5929;51.906;7.674;2023-12-20T05:14:51;17.42;;;6.80;;
11743;SDS011;5929;51.906;7.674;2023-12-20T05:17:18;21.73;;;7.28;;
11743;SDS011;5929;51.906;7.674;2023-12-20T05:19:46;18.58;;;6.63;;
11743;SDS011;5929;51.906;7.674;2023-12-20T05:22:12;22.63;;;6.68;;
11743;SDS011;5929;51.906;7.674;2023-12-20T05:24:39;23.00;;;8.10;;
11743;SDS011;5929;51.906;7.674;2023-12-20T05:27:06;21.38;;;6.75;;
11743;SDS011;5929;51.906;7.674;2023-12-20T05:29:33;14.35;;;6.28;;
11743;SDS011;5929;51.906;7.674;2023-12-20T05:32:01;15.27;;;5.93;;
11743;SDS011;5929;51.906;7.674;2023-12-20T05:34:29;23.73;;;7.80;;
11743;SDS011;5929;51.906;7.674;2023-12-20T05:36:57;23.50;;;7.90;;
11743;SDS011;5929;51.906;7.674;2023-12-20T05:39:24;22.10;;;7.10;;
11743;SDS011;5929;51.906;7.674;2023-12-20T05:41:50;27.13;;;6.70;;
11743;SDS011;5929;51.906;7.674;2023-12-20T05:44:17;23.83;;;7.80;;
11743;SDS011;5929;51.906;7.674;2023-12-20T05:46:46;26.55;;;8.18;;
11743;SDS011;5929;51.906;7.674;2023-12-20T05:49:17;19.00;;;7.57;;
11743;SDS011;5929;51.906;7.674;2023-12-20T05:51:46;25.50;;;8.00;;
11743;SDS011;5929;51.906;7.674;2023-12-20T05:54:13;20.15;;;8.02;;
11743;SDS011;5929;51.906;7.674;2023-12-20T05:56:40;19.95;;;6.75;;
11743;SDS011;5929;51.906;7.674;2023-12-20T05:59:06;17.92;;;6.78;;
11743;SDS011;5929;51.906;7.674;2023-12-20T06:01:34;26.00;;;8.15;;
11743;SDS011;5929;51.906;7.674;2023-12-20T06:04:01;22.48;;;7.88;;
11743;SDS011;5929;51.906;7.674;2023-12-20T06:06:29;22.20;;;6.95;;
11743;SDS011;5929;51.906;7.674;2023-12-20T06:08:56;26.70;;;7.65;;
11743;SDS011;5929;51.906;7.674;2023-12-20T06:11:23;22.58;;;6.85;;
11743;SDS011;5929;51.906;7.674;2023-12-20T06:13:50;23.08;;;7.38;;
11743;SDS011;5929;51.906;7.674;2023-12-20T06:16:18;28.45;;;8.27;;
11743;SDS011;5929;51.906;7.674;2023-12-20T06:18:45;21.60;;;7.43;;
11743;SDS011;5929;51.906;7.674;2023-12-20T06:21:12;16.98;;;5.97;;
11743;SDS011;5929;51.906;7.674;2023-12-20T06:23:40;19.92;;;6.22;;
11743;SDS011;5929;51.906;7.674;2023-12-20T06:26:10;18.05;;;6.90;;
11743;SDS011;5929;51.906;7.674;2023-12-20T06:28:37;22.75;;;6.47;;
11743;SDS011;5929;51.906;7.674;2023-12-20T06:31:04;22.30;;;7.70;;
11743;SDS011;5929;51.906;7.674;2023-12-20T06:33:30;21.00;;;5.63;;
11743;SDS011;5929;51.906;7.674;2023-12-20T06:35:57;31.02;;;8.43;;
11743;SDS011;5929;51.906;7.674;2023-12-20T06:38:24;21.77;;;6.10;;
11743;SDS011;5929;51.906;7.674;2023-12-20T06:40:52;23.65;;;6.18;;
11743;SDS011;5929;51.906;7.674;2023-12-20T06:43:20;20.08;;;6.47;;
11743;SDS011;5929;51.906;7.674;2023-12-20T06:45:47;24.67;;;7.28;;
11743;SDS011;5929;51.906;7.674;2023-12-20T06:48:14;17.80;;;6.32;;
11743;SDS011;5929;51.906;7.674;2023-12-20T06:50:40;20.25;;;6.75;;
11743;SDS011;5929;51.906;7.674;2023-12-20T06:53:07;21.05;;;5.63;;
11743;SDS011;5929;51.906;7.674;2023-12-20T06:55:34;20.80;;;5.32;;
11743;SDS011;5929;51.906;7.674;2023-12-20T06:58:04;20.40;;;6.20;;
11743;SDS011;5929;51.906;7.674;2023-12-20T07:00:32;19.92;;;5.18;;
11743;SDS011;5929;51.906;7.674;2023-12-20T07:02:59;24.83;;;6.18;;
11743;SDS011;5929;51.906;7.674;2023-12-20T07:05:26;18.75;;;6.55;;
11743;SDS011;5929;51.906;7.674;2023-12-20T07:07:53;17.25;;;5.70;;
11743;SDS011;5929;51.906;7.674;2023-12-20T07:10:20;13.85;;;5.82;;
11743;SDS011;5929;51.906;7.674;2023-12-20T07:12:49;17.58;;;6.20;;
11743;SDS011;5929;51.906;7.674;2023-12-20T07:15:18;24.40;;;6.03;;
11743;SDS011;5929;51.906;7.674;2023-12-20T07:17:44;16.27;;;6.15;;
11743;SDS011;5929;51.906;7.674;2023-12-20T07:20:11;21.63;;;6.32;;
11743;SDS011;5929;51.906;7.674;2023-12-20T07:22:38;22.65;;;6.03;;
11743;SDS011;5929;51.906;7.674;2023-12-20T07:25:06;19.95;;;6.43;;
11743;SDS011;5929;51.906;7.674;2023-12-20T07:27:33;21.10;;;5.55;;
11743;SDS011;5929;51.906;7.674;2023-12-20T07:30:00;21.73;;;5.70;;
11743;SDS011;5929;51.906;7.674;2023-12-20T07:32:28;17.25;;;5.45;;
11743;SDS011;5929;51.906;7.674;2023-12-20T07:34:55;20.30;;;6.28;;
11743;SDS011;5929;51.906;7.674;2023-12-20T07:37:22;17.05;;;6.50;;
11743;SDS011;5929;51.906;7.674;2023-12-20T07:39:49;14.60;;;5.75;;
11743;SDS011;5929;51.906;7.674;2023-12-20T07:42:15;17.95;;;5.32;;
11743;SDS011;5929;51.906;7.674;2023-12-20T07:44:42;22.52;;;5.70;;
11743;SDS011;5929;51.906;7.674;2023-12-20T07:47:09;15.77;;;5.78;;
11743;SDS011;5929;51.906;7.674;2023-12-20T07:49:38;20.23;;;6.30;;
11743;SDS011;5929;51.906;7.674;2023-12-20T07:52:05;16.20;;;5.80;;
11743;SDS011;5929;51.906;7.674;2023-12-20T07:54:33;16.25;;;6.47;;
11743;SDS011;5929;51.906;7.674;2023-12-20T07:57:00;20.13;;;6.32;;
11743;SDS011;5929;51.906;7.674;2023-12-20T07:59:27;19.13;;;5.60;;
11743;SDS011;5929;51.906;7.674;2023-12-20T08:01:53;17.42;;;6.43;;
11743;SDS011;5929;51.906;7.674;2023-12-20T08:04:20;20.17;;;5.90;;
11743;SDS011;5929;51.906;7.674;2023-12-20T08:06:48;25.05;;;7.35;;
11743;SDS011;5929;51.906;7.674;2023-12-20T08:09:16;19.65;;;6.55;;
11743;SDS011;5929;51.906;7.674;2023-12-20T08:11:44;16.25;;;6.95;;
11743;SDS011;5929;51.906;7.674;2023-12-20T08:14:11;17.63;;;6.32;;
11743;SDS011;5929;51.906;7.674;2023-12-20T08:16:38;16.13;;;6.78;;
11743;SDS011;5929;51.906;7.674;2023-12-20T08:19:05;22.38;;;7.05;;
11743;SDS011;5929;51.906;7.674;2023-12-20T08:21:31;18.33;;;6.35;;
11743;SDS011;5929;51.906;7.674;2023-12-20T08:24:00;21.15;;;6.20;;
11743;SDS011;5929;51.906;7.674;2023-12-20T08:26:26;22.83;;;7.07;;
11743;SDS011;5929;51.906;7.674;2023-12-20T08:28:53;18.95;;;6.53;;
11743;SDS011;5929;51.906;7.674;2023-12-20T08:31:20;17.08;;;6.07;;
11743;SDS011;5929;51.906;7.674;2023-12-20T08:33:47;18.67;;;6.00;;
11743;SDS011;5929;51.906;7.674;2023-12-20T08:36:15;21.20;;;6.25;;
11743;SDS011;5929;51.906;7.674;2023-12-20T08:38:43;24.02;;;6.95;;
11743;SDS011;5929;51.906;7.674;2023-12-20T08:41:12;20.58;;;5.88;;
11743;SDS011;5929;51.906;7.674;2023-12-20T08:43:39;19.85;;;5.78;;
11743;SDS011;5929;51.906;7.674;2023-12-20T08:46:06;19.08;;;5.78;;
11743;SDS011;5929;51.906;7.674;2023-12-20T08:48:34;42.40;;;8.75;;
11743;SDS011;5929;51.906;7.674;2023-12-20T08:51:02;23.30;;;7.63;;
11743;SDS011;5929;51.906;7.674;2023-12-20T08:53:29;21.00;;;7.20;;
11743;SDS011;5929;51.906;7.674;2023-12-20T08:55:56;16.90;;;6.13;;
11743;SDS011;5929;51.906;7.674;2023-12-20T08:58:27;22.70;;;6.05;;
11743;SDS011;5929;51.906;7.674;2023-12-20T09:00:54;17.65;;;6.47;;
11743;SDS011;5929;51.906;7.674;2023-12-20T09:03:22;23.58;;;6.25;;
11743;SDS011;5929;51.906;7.674;2023-12-20T09:05:49;17.92;;;6.75;;
11743;SDS011;5929;51.906;7.674;2023-12-20T09:08:16;21.85;;;6.10;;
11743;SDS011;5929;51.906;7.674;2023-12-20T09:10:43;17.15;;;5.88;;
11743;SDS011;5929;51.906;7.674;2023-12-20T09:13:10;19.15;;;5.65;;
11743;SDS011;5929;51.906;7.674;2023-12-20T09:15:38;17.30;;;5.78;;
11743;SDS011;5929;51.906;7.674;2023-12-20T09:18:05;24.55;;;6.03;;
11743;SDS011;5929;51.906;7.674;2023-12-20T09:20:32;24.23;;;6.20;;
11743;SDS011;5929;51.906;7.674;2023-12-20T09:22:59;15.45;;;5.35;;
11743;SDS011;5929;51.906;7.674;2023-12-20T09:25:26;14.43;;;6.25;;
11743;SDS011;5929;51.906;7.674;2023-12-20T09:27:54;16.60;;;5.80;;
11743;SDS011;5929;51.906;7.674;2023-12-20T09:30:21;15.88;;;5.85;;
11743;SDS011;5929;51.906;7.674;2023-12-20T09:32:49;17.63;;;5.55;;
11743;SDS011;5929;51.906;7.674;2023-12-20T09:35:16;17.58;;;5.00;;
11743;SDS011;5929;51.906;7.674;2023-12-20T09:37:43;17.80;;;5.60;;
11743;SDS011;5929;51.906;7.674;2023-12-20T09:40:12;23.77;;;6.53;;
11743;SDS011;5929;51.906;7.674;2023-12-20T09:42:41;19.23;;;5.85;;
11743;SDS011;5929;51.906;7.674;2023-12-20T09:45:14;14.68;;;4.60;;
11743;SDS011;5929;51.906;7.674;2023-12-20T09:47:42;20.25;;;5.63;;
11743;SDS011;5929;51.906;7.674;2023-12-20T09:50:11;18.50;;;4.80;;
11743;SDS011;5929;51.906;7.674;2023-12-20T09:52:39;20.58;;;4.90;;
11743;SDS011;5929;51.906;7.674;2023-12-20T09:55:07;25.50;;;6.15;;
11743;SDS011;5929;51.906;7.674;2023-12-20T09:57:34;18.50;;;4.93;;
11743;SDS011;5929;51.906;7.674;2023-12-20T10:00:02;13.18;;;4.40;;
11743;SDS011;5929;51.906;7.674;2023-12-20T10:02:29;15.75;;;5.18;;
11743;SDS011;5929;51.906;7.674;2023-12-20T10:04:59;16.67;;;5.05;;
11743;SDS011;5929;51.906;7.674;2023-12-20T10:07:29;17.95;;;4.70;;
11743;SDS011;5929;51.906;7.674;2023-12-20T10:09:56;19.52;;;5.43;;
11743;SDS011;5929;51.906;7.674;2023-12-20T10:12:23;16.20;;;4.72;;
11743;SDS011;5929;51.906;7.674;2023-12-20T10:14:50;23.48;;;5.05;;
11743;SDS011;5929;51.906;7.674;2023-12-20T10:17:17;16.75;;;3.85;;
11743;SDS011;5929;51.906;7.674;2023-12-20T10:19:44;17.63;;;4.43;;
11743;SDS011;5929;51.906;7.674;2023-12-20T10:22:10;15.02;;;3.90;;
11743;SDS011;5929;51.906;7.674;2023-12-20T10:24:41;19.70;;;5.07;;
11743;SDS011;5929;51.906;7.674;2023-12-20T10:27:08;17.17;;;4.07;;
11743;SDS011;5929;51.906;7.674;2023-12-20T10:29:38;12.75;;;3.72;;
11743;SDS011;5929;51.906;7.674;2023-12-20T10:32:23;17.90;;;4.93;;
11743;SDS011;5929;51.906;7.674;2023-12-20T10:34:53;13.95;;;3.42;;
11743;SDS011;5929;51.906;7.674;2023-12-20T10:37:21;21.27;;;5.60;;
11743;SDS011;5929;51.906;7.674;2023-12-20T10:39:50;17.08;;;4.28;;
11743;SDS011;5929;51.906;7.674;2023-12-20T10:42:21;17.45;;;5.15;;
11743;SDS011;5929;51.906;7.674;2023-12-20T10:44:48;19.10;;;4.90;;
11743;SDS011;5929;51.906;7.674;2023-12-20T10:47:16;15.70;;;5.10;;
11743;SDS011;5929;51.906;7.674;2023-12-20T10:49:43;18.45;;;4.53;;
11743;SDS011;5929;51.906;7.674;2023-12-20T10:52:11;16.25;;;4.55;;
11743;SDS011;5929;51.906;7.674;2023-12-20T10:54:39;12.73;;;4.97;;
11743;SDS011;5929;51.906;7.674;2023-12-20T10:57:07;13.45;;;4.63;;
11743;SDS011;5929;51.906;7.674;2023-12-20T10:59:36;17.67;;;5.05;;
11743;SDS011;5929;51.906;7.674;2023-12-20T11:02:04;21.52;;;5.65;;
11743;SDS011;5929;51.906;7.674;2023-12-20T11:04:36;22.27;;;5.35;;
11743;SDS011;5929;51.906;7.674;2023-12-20T11:07:08;22.20;;;5.00;;
11743;SDS011;5929;51.906;7.674;2023-12-20T11:09:48;22.63;;;4.70;;
11743;SDS011;5929;51.906;7.674;2023-12-20T11:12:28;15.85;;;4.05;;
11743;SDS011;5929;51.906;7.674;2023-12-20T11:15:04;19.10;;;4.35;;
11743;SDS011;5929;51.906;7.674;2023-12-20T11:17:32;17.30;;;4.88;;
11743;SDS011;5929;51.906;7.674;2023-12-20T11:20:09;23.05;;;4.70;;
11743;SDS011;5929;51.906;7.674;2023-12-20T11:22:39;24.27;;;4.45;;
11743;SDS011;5929;51.906;7.674;2023-12-20T11:25:18;12.90;;;3.90;;
11743;SDS011;5929;51.906;7.674;2023-12-20T11:28:06;20.23;;;6.10;;
11743;SDS011;5929;51.906;7.674;2023-12-20T11:30:40;15.55;;;5.07;;
11743;SDS011;5929;51.906;7.674;2023-12-20T11:33:10;22.10;;;5.93;;
11743;SDS011;5929;51.906;7.674;2023-12-20T11:35:37;18.92;;;5.40;;
11743;SDS011;5929;51.906;7.674;2023-12-20T11:38:07;24.27;;;5.15;;
11743;SDS011;5929;51.906;7.674;2023-12-20T11:40:34;17.88;;;5.43;;
11743;SDS011;5929;51.906;7.674;2023-12-20T11:43:03;15.38;;;5.30;;
11743;SDS011;5929;51.906;7.674;2023-12-20T11:45:31;15.00;;;4.75;;
11743;SDS011;5929;51.906;7.674;2023-12-20T11:47:57;18.63;;;5.03;;
11743;SDS011;5929;51.906;7.674;2023-12-20T11:50:24;19.42;;;5.40;;
11743;SDS011;5929;51.906;7.674;2023-12-20T11:52:51;13.98;;;4.85;;
11743;SDS011;5929;51.906;7.674;2023-12-20T11:55:19;17.30;;;5.35;;
11743;SDS011;5929;51.906;7.674;2023-12-20T11:57:46;16.60;;;5.63;;
11743;SDS011;5929;51.906;7.674;2023-12-20T12:00:14;19.30;;;4.97;;
11743;SDS011;5929;51.906;7.674;2023-12-20T12:02:42;23.85;;;5.28;;
11743;SDS011;5929;51.906;7.674;2023-12-20T12:05:09;24.63;;;5.80;;
11743;SDS011;5929;51.906;7.674;2023-12-20T12:07:35;18.20;;;5.25;;
11743;SDS011;5929;51.906;7.674;2023-12-20T12:10:02;20.08;;;5.68;;
11743;SDS011;5929;51.906;7.674;2023-12-20T12:12:30;27.27;;;5.47;;
11743;SDS011;5929;51.906;7.674;2023-12-20T12:14:57;18.05;;;4.88;;
11743;SDS011;5929;51.906;7.674;2023-12-20T12:17:26;14.95;;;4.70;;
11743;SDS011;5929;51.906;7.674;2023-12-20T12:20:01;15.68;;;4.72;;
11743;SDS011;5929;51.906;7.674;2023-12-20T12:22:29;16.83;;;4.70;;
11743;SDS011;5929;51.906;7.674;2023-12-20T12:24:58;20.55;;;5.13;;
11743;SDS011;5929;51.906;7.674;2023-12-20T12:27:34;15.05;;;4.47;;
11743;SDS011;5929;51.906;7.674;2023-12-20T12:30:04;23.33;;;4.45;;
11743;SDS011;5929;51.906;7.674;2023-12-20T12:32:33;16.00;;;4.45;;
11743;SDS011;5929;51.906;7.674;2023-12-20T12:35:02;14.25;;;4.25;;
11743;SDS011;5929;51.906;7.674;2023-12-20T12:37:31;16.40;;;4.50;;
11743;SDS011;5929;51.906;7.674;2023-12-20T12:40:00;12.70;;;3.88;;
11743;SDS011;5929;51.906;7.674;2023-12-20T12:42:27;17.15;;;4.30;;
11743;SDS011;5929;51.906;7.674;2023-12-20T12:44:54;17.02;;;4.82;;
11743;SDS011;5929;51.906;7.674;2023-12-20T12:47:21;18.33;;;4.72;;
11743;SDS011;5929;51.906;7.674;2023-12-20T12:49:51;18.33;;;4.38;;
11743;SDS011;5929;51.906;7.674;2023-12-20T12:52:18;17.17;;;4.85;;
11743;SDS011;5929;51.906;7.674;2023-12-20T12:54:45;13.57;;;4.03;;
11743;SDS011;5929;51.906;7.674;2023-12-20T12:57:12;15.82;;;4.15;;
11743;SDS011;5929;51.906;7.674;2023-12-20T12:59:39;14.48;;;3.55;;
11743;SDS011;5929;51.906;7.674;2023-12-20T13:02:06;16.75;;;3.55;;
11743;SDS011;5929;51.906;7.674;2023-12-20T13:04:33;11.77;;;3.25;;
11743;SDS011;5929;51.906;7.674;2023-12-20T13:07:01;17.60;;;4.28;;
11743;SDS011;5929;51.906;7.674;2023-12-20T13:09:28;11.95;;;3.63;;
11743;SDS011;5929;51.906;7.674;2023-12-20T13:11:55;19.10;;;3.85;;
11743;SDS011;5929;51.906;7.674;2023-12-20T13:14:22;14.23;;;3.85;;
11743;SDS011;5929;51.906;7.674;2023-12-20T13:16:49;21.10;;;3.97;;
11743;SDS011;5929;51.906;7.674;2023-12-20T13:19:18;14.30;;;3.40;;
11743;SDS011;5929;51.906;7.674;2023-12-20T13:21:44;13.70;;;3.30;;
11743;SDS011;5929;51.906;7.674;2023-12-20T13:24:12;13.35;;;4.22;;
11743;SDS011;5929;51.906;7.674;2023-12-20T13:26:39;18.85;;;4.22;;
11743;SDS011;5929;51.906;7.674;2023-12-20T13:29:06;17.65;;;4.47;;
11743;SDS011;5929;51.906;7.674;2023-12-20T13:31:33;12.77;;;3.17;;
11743;SDS011;5929;51.906;7.674;2023-12-20T13:34:01;17.67;;;3.70;;
11743;SDS011;5929;51.906;7.674;2023-12-20T13:36:28;19.20;;;4.50;;
11743;SDS011;5929;51.906;7.674;2023-12-20T13:38:57;18.25;;;3.95;;
11743;SDS011;5929;51.906;7.674;2023-12-20T13:41:26;14.43;;;3.65;;
11743;SDS011;5929;51.906;7.674;2023-12-20T13:43:52;13.73;;;3.88;;
11743;SDS011;5929;51.906;7.674;2023-12-20T13:46:19;16.02;;;3.60;;
11743;SDS011;5929;51.906;7.674;2023-12-20T13:48:46;17.20;;;4.25;;
11743;SDS011;5929;51.906;7.674;2023-12-20T13:51:13;20.17;;;3.70;;
11743;SDS011;5929;51.906;7.674;2023-12-20T13:53:40;11.60;;;3.67;;
11743;SDS011;5929;51.906;7.674;2023-12-20T13:56:07;19.38;;;4.65;;
11743;SDS011;5929;51.906;7.674;2023-12-20T13:58:35;9.52;;;3.20;;
11743;SDS011;5929;51.906;7.674;2023-12-20T14:01:02;14.02;;;3.17;;
11743;SDS011;5929;51.906;7.674;2023-12-20T14:03:29;14.35;;;3.90;;
11743;SDS011;5929;51.906;7.674;2023-12-20T14:05:56;14.60;;;3.90;;
11743;SDS011;5929;51.906;7.674;2023-12-20T14:08:25;16.95;;;2.90;;
11743;SDS011;5929;51.906;7.674;2023-12-20T14:10:52;10.73;;;3.55;;
11743;SDS011;5929;51.906;7.674;2023-12-20T14:13:19;16.25;;;3.95;;
11743;SDS011;5929;51.906;7.674;2023-12-20T14:15:48;16.35;;;3.78;;
11743;SDS011;5929;51.906;7.674;2023-12-20T14:18:15;17.25;;;3.33;;
11743;SDS011;5929;51.906;7.674;2023-12-20T14:20:42;16.40;;;4.30;;
11743;SDS011;5929;51.906;7.674;2023-12-20T14:23:09;13.27;;;3.47;;
11743;SDS011;5929;51.906;7.674;2023-12-20T14:25:36;20.45;;;3.88;;
11743;SDS011;5929;51.906;7.674;2023-12-20T14:28:03;18.30;;;5.03;;
11743;SDS011;5929;51.906;7.674;2023-12-20T14:30:30;13.38;;;3.45;;
11743;SDS011;5929;51.906;7.674;2023-12-20T14:32:59;16.90;;;3.90;;
11743;SDS011;5929;51.906;7.674;2023-12-20T14:35:25;13.82;;;3.67;;
11743;SDS011;5929;51.906;7.674;2023-12-20T14:37:55;17.50;;;3.88;;
11743;SDS011;5929;51.906;7.674;2023-12-20T14:40:22;17.52;;;4.18;;
11743;SDS011;5929;51.906;7.674;2023-12-20T14:42:49;17.75;;;3.70;;
11743;SDS011;5929;51.906;7.674;2023-12-20T14:45:16;12.20;;;3.70;;
11743;SDS011;5929;51.906;7.674;2023-12-20T14:47:43;18.10;;;3.70;;
11743;SDS011;5929;51.906;7.674;2023-12-20T14:50:12;19.65;;;4.20;;